Observation data for Olton on 05/25/2019      Previous  Date  Next       Current Mesonet Observations  Soil Data  Daily Summary Page  Observations in Plain Language
KONS 250500Z 14013KT 18/16 A2998 RMK A01 T01830156  RH  086%=      5-min Rain = 0
KONS 250505Z 14014KT 19/16 A2998 RMK A01 T01860158  RH  086%=      5-min Rain = 0
KONS 250510Z 14014KT 19/16 A2998 RMK A01 T01870159  RH  086%=      5-min Rain = 0
KONS 250515Z 14014KT 19/16 A2998 RMK A01 T01870160  RH  086%=      5-min Rain = 0
KONS 250520Z 14014KT 19/16 A2998 RMK A01 T01870162  RH  087%=      5-min Rain = 0
KONS 250525Z 14014KT 19/16 A2998 RMK A01 T01880163  RH  087%=      5-min Rain = 0
KONS 250530Z 14015G21KT 19/16 A2998 RMK A01 T01880163  RH  087%=      5-min Rain = 0
KONS 250535Z 14013KT 19/16 A2998 RMK A01 T01870163  RH  088%=      5-min Rain = 0
KONS 250540Z 14013KT 19/16 A2998 RMK A01 T01860162  RH  088%=      5-min Rain = 0
KONS 250545Z 14012KT 19/16 A2998 RMK A01 T01850162  RH  088%=      5-min Rain = 0
KONS 250550Z 13014KT 19/16 A2997 RMK A01 T01850162  RH  088%=      5-min Rain = 0
KONS 250555Z 13012G17KT 18/16 A2998 RMK A01 T01840161  RH  088%=      5-min Rain = 0
KONS 250600Z 14011KT 18/16 A2998 RMK A01 T01830160  RH  089%=      5-min Rain = 0
KONS 250605Z 13011KT 18/16 A2998 RMK A01 T01810160  RH  090%=      5-min Rain = 0
KONS 250610Z 13011KT 18/16 A2998 RMK A01 T01800160  RH  090%=      5-min Rain = 0
KONS 250615Z 14010KT 18/16 A2998 RMK A01 T01800160  RH  090%=      5-min Rain = 0
KONS 250620Z 14011KT 18/16 A2998 RMK A01 T01790160  RH  091%=      5-min Rain = 0
KONS 250625Z 14011KT 18/16 A2998 RMK A01 T01780159  RH  091%=      5-min Rain = 0
KONS 250630Z 15011KT 18/16 A2998 RMK A01 T01770159  RH  091%=      5-min Rain = 0
KONS 250635Z 14010KT 18/16 A2997 RMK A01 T01760159  RH  092%=      5-min Rain = 0
KONS 250640Z 13011KT 18/16 A2997 RMK A01 T01760160  RH  092%=      5-min Rain = 0
KONS 250645Z 13013KT 18/16 A2997 RMK A01 T01760160  RH  093%=      5-min Rain = 0
KONS 250650Z 13012KT 18/16 A2997 RMK A01 T01750161  RH  093%=      5-min Rain = 0
KONS 250655Z 13012KT 18/16 A2997 RMK A01 T01750161  RH  093%=      5-min Rain = 0
KONS 250700Z 13011KT 18/16 A2997 RMK A01 T01750161  RH  094%=      5-min Rain = 0
KONS 250705Z 14010KT 17/16 A2997 RMK A01 T01740161  RH  094%=      5-min Rain = 0
KONS 250710Z 14010KT 17/16 A2997 RMK A01 T01740160  RH  094%=      5-min Rain = 0
KONS 250715Z 14010KT 17/16 A2997 RMK A01 T01730160  RH  094%=      5-min Rain = 0
KONS 250720Z 14010KT 17/16 A2997 RMK A01 T01720160  RH  094%=      5-min Rain = 0
KONS 250725Z 14009KT 17/16 A2997 RMK A01 T01720159  RH  094%=      5-min Rain = 0
KONS 250730Z 14010KT 17/16 A2997 RMK A01 T01710159  RH  094%=      5-min Rain = 0
KONS 250735Z 14010KT 17/16 A2997 RMK A01 T01710159  RH  095%=      5-min Rain = 0
KONS 250740Z 14011KT 17/16 A2997 RMK A01 T01710159  RH  095%=      5-min Rain = 0
KONS 250745Z 14011KT 17/16 A2997 RMK A01 T01700158  RH  095%=      5-min Rain = 0
KONS 250750Z 14010KT 17/16 A2997 RMK A01 T01700158  RH  095%=      5-min Rain = 0
KONS 250755Z 14009KT 17/16 A2997 RMK A01 T01700158  RH  095%=      5-min Rain = 0
KONS 250800Z 14010KT 17/16 A2997 RMK A01 T01700158  RH  095%=      5-min Rain = 0
KONS 250805Z 14009KT 17/16 A2997 RMK A01 T01700159  RH  095%=      5-min Rain = 0
KONS 250810Z 14008KT 17/16 A2997 RMK A01 T01710160  RH  095%=      5-min Rain = 0
KONS 250815Z 14009KT 17/16 A2997 RMK A01 T01720160  RH  095%=      5-min Rain = 0
KONS 250820Z 14009KT 17/16 A2997 RMK A01 T01720161  RH  095%=      5-min Rain = 0
KONS 250825Z 14009KT 17/16 A2997 RMK A01 T01730162  RH  095%=      5-min Rain = 0
KONS 250830Z 14009KT 17/16 A2996 RMK A01 T01740163  RH  095%=      5-min Rain = 0
KONS 250835Z 14010KT 17/16 A2996 RMK A01 T01740163  RH  095%=      5-min Rain = 0
KONS 250840Z 14009KT 18/16 A2996 RMK A01 T01750164  RH  095%=      5-min Rain = 0
KONS 250845Z 14010KT 18/16 A2996 RMK A01 T01750164  RH  096%=      5-min Rain = 0
KONS 250850Z 14009KT 18/17 A2996 RMK A01 T01760165  RH  096%=      5-min Rain = 0
KONS 250855Z 14010KT 18/17 A2996 RMK A01 T01760165  RH  096%=      5-min Rain = 0
KONS 250900Z 14011KT 18/17 A2996 RMK A01 T01760166  RH  096%=      5-min Rain = 0
KONS 250905Z 14009KT 18/17 A2996 RMK A01 T01770166  RH  096%=      5-min Rain = 0
KONS 250910Z 14009KT 18/17 A2996 RMK A01 T01770166  RH  096%=      5-min Rain = 0
KONS 250915Z 14009KT 18/17 A2996 RMK A01 T01770166  RH  096%=      5-min Rain = 0
KONS 250920Z 14008KT 18/17 A2996 RMK A01 T01770166  RH  096%=      5-min Rain = 0
KONS 250925Z 14008KT 18/17 A2996 RMK A01 T01770167  RH  096%=      5-min Rain = 0
KONS 250930Z 14009KT 18/17 A2996 RMK A01 T01770167  RH  096%=      5-min Rain = 0
KONS 250935Z 14009G14KT 18/17 A2996 RMK A01 T01770167  RH  096%=      5-min Rain = 0
KONS 250940Z 14010KT 18/17 A2996 RMK A01 T01780167  RH  096%=      5-min Rain = 0
KONS 250945Z 14010KT 18/17 A2996 RMK A01 T01780168  RH  096%=      5-min Rain = 0
KONS 250950Z 14009KT 18/17 A2997 RMK A01 T01780168  RH  096%=      5-min Rain = 0
KONS 250955Z 14010KT 18/17 A2997 RMK A01 T01790168  RH  096%=      5-min Rain = 0
KONS 251000Z 14008KT 18/17 A2997 RMK A01 T01790168  RH  096%=      5-min Rain = 0
KONS 251005Z 14008KT 18/17 A2997 RMK A01 T01790169  RH  096%=      5-min Rain = 0
KONS 251010Z 15010KT 18/17 A2997 RMK A01 T01790169  RH  096%=      5-min Rain = 0
KONS 251015Z 15009G14KT 18/17 A2997 RMK A01 T01800169  RH  096%=      5-min Rain = 0
KONS 251020Z 14010KT 18/17 A2997 RMK A01 T01800169  RH  096%=      5-min Rain = 0
KONS 251025Z 14010KT 18/17 A2997 RMK A01 T01790169  RH  096%=      5-min Rain = 0
KONS 251030Z 14011KT 18/17 A2997 RMK A01 T01790169  RH  096%=      5-min Rain = 0
KONS 251035Z 15012KT 18/17 A2997 RMK A01 T01790169  RH  096%=      5-min Rain = 0
KONS 251040Z 15011KT 18/17 A2997 RMK A01 T01800169  RH  096%=      5-min Rain = 0
KONS 251045Z 14011KT 18/17 A2997 RMK A01 T01800170  RH  096%=      5-min Rain = 0
KONS 251050Z 15011KT 18/17 A2997 RMK A01 T01800170  RH  096%=      5-min Rain = 0
KONS 251055Z 15012KT 18/17 A2998 RMK A01 T01810171  RH  096%=      5-min Rain = 0
KONS 251100Z 15012G17KT 18/17 A2998 RMK A01 T01810171  RH  096%=      5-min Rain = 0
KONS 251105Z 15011KT 18/17 A2998 RMK A01 T01810171  RH  096%=      5-min Rain = 0
KONS 251110Z 15011G16KT 18/17 A2998 RMK A01 T01820172  RH  096%=      5-min Rain = 0
KONS 251115Z 15011KT 18/17 A2998 RMK A01 T01820172  RH  096%=      5-min Rain = 0
KONS 251120Z 15012KT 18/17 A2998 RMK A01 T01820173  RH  096%=      5-min Rain = 0
KONS 251125Z 15012G18KT 18/17 A2998 RMK A01 T01830173  RH  096%=      5-min Rain = 0
KONS 251130Z 15011KT 18/17 A2998 RMK A01 T01840174  RH  096%=      5-min Rain = 0
KONS 251135Z 15012G17KT 18/17 A2998 RMK A01 T01840174  RH  096%=      5-min Rain = 0
KONS 251140Z 15012KT 18/18 A2999 RMK A01 T01840175  RH  096%=      5-min Rain = 0
KONS 251145Z 15014KT 19/18 A2999 RMK A01 T01850175  RH  096%=      5-min Rain = 0
KONS 251150Z 15013G18KT 19/18 A2999 RMK A01 T01850175  RH  096%=      5-min Rain = 0
KONS 251155Z 15012KT 19/18 A2999 RMK A01 T01850175  RH  096%=      5-min Rain = 0
KONS 251200Z 15012KT 19/18 A2999 RMK A01 T01850176  RH  096%=      5-min Rain = 0
KONS 251205Z 15012KT 19/18 A2999 RMK A01 T01850176  RH  096%=      5-min Rain = 0
KONS 251210Z 15012KT 19/18 A2999 RMK A01 T01860176  RH  096%=      5-min Rain = 0
KONS 251215Z 15013G18KT 19/18 A2999 RMK A01 T01860176  RH  097%=      5-min Rain = 0
KONS 251220Z 15013KT 19/18 A2999 RMK A01 T01860177  RH  097%=      5-min Rain = 0
KONS 251225Z 15013KT 19/18 A2999 RMK A01 T01860177  RH  097%=      5-min Rain = 0
KONS 251230Z 15012G17KT 19/18 A30 RMK A01 T01860177  RH  097%=      5-min Rain = 0
KONS 251235Z 15013KT 19/18 A30 RMK A01 T01870177  RH  097%=      5-min Rain = 0
KONS 251240Z 15013G18KT 19/18 A30 RMK A01 T01870177  RH  097%=      5-min Rain = 0
KONS 251245Z 15013KT 19/18 A30 RMK A01 T01870178  RH  097%=      5-min Rain = 0
KONS 251250Z 16014KT 19/18 A3001 RMK A01 T01880178  RH  097%=      5-min Rain = 0
KONS 251255Z 15015KT 19/18 A3001 RMK A01 T01880179  RH  097%=      5-min Rain = 0
KONS 251300Z 15014KT 19/18 A3001 RMK A01 T01890179  RH  097%=      5-min Rain = 0
KONS 251305Z 16013G18KT 19/18 A3001 RMK A01 T01900180  RH  097%=      5-min Rain = 0
KONS 251310Z 16013KT 19/18 A3001 RMK A01 T01910181  RH  097%=      5-min Rain = 0
KONS 251315Z 16014G19KT 19/18 A3001 RMK A01 T01920182  RH  096%=      5-min Rain = 0
KONS 251320Z 16015G20KT 19/18 A3001 RMK A01 T01920182  RH  096%=      5-min Rain = 0
KONS 251325Z 16013KT 19/18 A3001 RMK A01 T01930183  RH  096%=      5-min Rain = 0
KONS 251330Z 15014G19KT 19/18 A3002 RMK A01 T01930183  RH  096%=      5-min Rain = 0
KONS 251335Z 16014KT 19/18 A3002 RMK A01 T01930183  RH  096%=      5-min Rain = 0
KONS 251340Z 15013KT 19/18 A3002 RMK A01 T01930182  RH  096%=      5-min Rain = 0
KONS 251345Z 15012KT 19/18 A3002 RMK A01 T01940183  RH  096%=      5-min Rain = 0
KONS 251350Z 15013KT 19/18 A3002 RMK A01 T01930182  RH  096%=      5-min Rain = 0
KONS 251355Z 16012KT 19/18 A3002 RMK A01 T01930182  RH  096%=      5-min Rain = 0
KONS 251400Z 16011KT 19/18 A3002 RMK A01 T01940183  RH  096%=      5-min Rain = 0
KONS 251405Z 16011KT 19/18 A3002 RMK A01 T01940183  RH  096%=      5-min Rain = 0
KONS 251410Z 16011KT 19/18 A3002 RMK A01 T01940183  RH  096%=      5-min Rain = 0
KONS 251415Z 15012KT 19/18 A3003 RMK A01 T01940183  RH  096%=      5-min Rain = 0
KONS 251420Z 16011KT 20/18 A3003 RMK A01 T01950184  RH  096%=      5-min Rain = 0
KONS 251425Z 16010G16KT 20/19 A3003 RMK A01 T01960185  RH  096%=      5-min Rain = 0
KONS 251430Z 16012G18KT 20/19 A3003 RMK A01 T01980186  RH  096%=      5-min Rain = 0
KONS 251435Z 16013KT 20/19 A3003 RMK A01 T01990187  RH  095%=      5-min Rain = 0
KONS 251440Z 16013KT 20/19 A3003 RMK A01 T01990187  RH  095%=      5-min Rain = 0
KONS 251445Z 16014KT 20/19 A3003 RMK A01 T02000187  RH  095%=      5-min Rain = 0
KONS 251450Z 16013G19KT 20/19 A3003 RMK A01 T02000188  RH  095%=      5-min Rain = 0
KONS 251455Z 16013G18KT 20/19 A3003 RMK A01 T02010188  RH  095%=      5-min Rain = 0
KONS 251500Z 16013KT 20/19 A3003 RMK A01 T02020189  RH  094%=      5-min Rain = 0
KONS 251505Z 16013KT 20/19 A3002 RMK A01 T02030189  RH  094%=      5-min Rain = 0
KONS 251510Z 16014G19KT 20/19 A3002 RMK A01 T02030189  RH  094%=      5-min Rain = 0
KONS 251515Z 16013G19KT 20/19 A3002 RMK A01 T02030188  RH  094%=      5-min Rain = 0
KONS 251520Z 16013KT 20/19 A3002 RMK A01 T02030188  RH  093%=      5-min Rain = 0
KONS 251525Z 16014KT 20/19 A3002 RMK A01 T02030188  RH  093%=      5-min Rain = 0
KONS 251530Z 17013G18KT 21/19 A3002 RMK A01 T02050189  RH  093%=      5-min Rain = 0
KONS 251535Z 16014KT 21/19 A3002 RMK A01 T02050189  RH  093%=      5-min Rain = 0
KONS 251540Z 16014KT 21/19 A3002 RMK A01 T02050189  RH  093%=      5-min Rain = 0
KONS 251545Z 16015KT 21/19 A3002 RMK A01 T02050188  RH  093%=      5-min Rain = 0
KONS 251550Z 16015KT 21/19 A3002 RMK A01 T02060189  RH  092%=      5-min Rain = 0
KONS 251555Z 17015KT 21/19 A3002 RMK A01 T02060189  RH  092%=      5-min Rain = 0
KONS 251600Z 17014KT 21/19 A3002 RMK A01 T02060189  RH  092%=      5-min Rain = 0
KONS 251605Z 16014KT 21/19 A3002 RMK A01 T02070189  RH  092%=      5-min Rain = 0
KONS 251610Z 16013KT 21/19 A3002 RMK A01 T02070190  RH  092%=      5-min Rain = 0
KONS 251615Z 16013KT 21/19 A3002 RMK A01 T02080190  RH  092%=      5-min Rain = 0
KONS 251620Z 16014G19KT 21/19 A3003 RMK A01 T02070190  RH  092%=      5-min Rain = 0
KONS 251625Z 16016KT 21/19 A3003 RMK A01 T02080190  RH  092%=      5-min Rain = 0
KONS 251630Z 16015KT 21/19 A3003 RMK A01 T02090190  RH  091%=      5-min Rain = 0
KONS 251635Z 16015KT 21/19 A3003 RMK A01 T02110191  RH  091%=      5-min Rain = 0
KONS 251640Z 17017KT 21/19 A3003 RMK A01 T02100190  RH  091%=      5-min Rain = 0
KONS 251645Z 16015G22KT 21/19 A3003 RMK A01 T02100190  RH  091%=      5-min Rain = 0
KONS 251650Z 16016G21KT 21/19 A3003 RMK A01 T02100190  RH  091%=      5-min Rain = 0
KONS 251655Z 17016G21KT 21/19 A3003 RMK A01 T02090190  RH  091%=      5-min Rain = 0
KONS 251700Z 16014G21KT 21/19 A3003 RMK A01 T02100190  RH  091%=      5-min Rain = 0
KONS 251705Z 16017KT 21/19 A3003 RMK A01 T02090189  RH  091%=      5-min Rain = 0
KONS 251710Z 16015G20KT 21/19 A3003 RMK A01 T02090191  RH  092%=      5-min Rain = 0
KONS 251715Z 16015G20KT 21/19 A3002 RMK A01 T02090191  RH  092%=      5-min Rain = 0
KONS 251720Z 15015G20KT 21/19 A3002 RMK A01 T02090191  RH  092%=      5-min Rain = 0
KONS 251725Z 15014G20KT 21/19 A3002 RMK A01 T02100192  RH  092%=      5-min Rain = 0
KONS 251730Z 15014KT 21/19 A3002 RMK A01 T02090191  RH  092%=      5-min Rain = 0
KONS 251735Z 15015G21KT 21/19 A3002 RMK A01 T02080190  RH  092%=      5-min Rain = 0
KONS 251740Z 15016KT 21/19 A3001 RMK A01 T02080191  RH  092%=      5-min Rain = 0
KONS 251745Z 15017G23KT 21/19 A3001 RMK A01 T02090192  RH  092%=      5-min Rain = 0
KONS 251750Z 15018G23KT 21/19 A3001 RMK A01 T02090191  RH  092%=      5-min Rain = 0
KONS 251755Z 15017KT 21/19 A3002 RMK A01 T02100191  RH  091%=      5-min Rain = 0
KONS 251800Z 15016KT 21/19 A3001 RMK A01 T02100191  RH  091%=      5-min Rain = 0
KONS 251805Z 15015G21KT 21/19 A3001 RMK A01 T02100190  RH  091%=      5-min Rain = 0
KONS 251810Z 15016G21KT 21/19 A3001 RMK A01 T02090190  RH  091%=      5-min Rain = 0
KONS 251815Z 15015G20KT 21/19 A3001 RMK A01 T02090190  RH  091%=      5-min Rain = 0
KONS 251820Z 15014KT 21/19 A3001 RMK A01 T02090189  RH  091%=      5-min Rain = 0
KONS 251825Z 15015G21KT 21/19 A3001 RMK A01 T02070188  RH  091%=      5-min Rain = 0
KONS 251830Z 14013G18KT 21/19 A30 RMK A01 T02070189  RH  092%=      5-min Rain = 0
KONS 251835Z 14014KT 21/19 A30 RMK A01 T02060188  RH  092%=      5-min Rain = 0
KONS 251840Z 14012KT 21/19 A30 RMK A01 T02060188  RH  092%=      5-min Rain = 0
KONS 251845Z 14013KT 21/19 A2999 RMK A01 T02050188  RH  092%=      5-min Rain = 0
KONS 251850Z 14014KT 20/19 A2999 RMK A01 T02040188  RH  092%=      5-min Rain = 0
KONS 251855Z 13012KT 20/19 A2997 RMK A01 T02040188  RH  093%=      5-min Rain = 0
KONS 251900Z 13011KT 20/19 A2999 RMK A01 T02030188  RH  093%=      5-min Rain = 0
KONS 251905Z 13012G17KT 20/19 A2999 RMK A01 T02030187  RH  093%=      5-min Rain = 0
KONS 251910Z 13011KT 20/19 A2999 RMK A01 T02020187  RH  093%=      5-min Rain = 0
KONS 251915Z 12012G19KT 20/19 A2997 RMK A01 T02020187  RH  094%=      5-min Rain = 0.01
KONS 251920Z 12010G16KT 20/19 A2997 RMK A01 T02000186  RH  094%=      5-min Rain = 0.01
KONS 251925Z 10007KT 20/19 A2997 RMK A01 T01990186  RH  094%=      5-min Rain = 0.03
KONS 251930Z 16006KT 20/19 A30 RMK A01 T01980185  RH  095%=      5-min Rain = 0.06
KONS 251935Z 26014G29KT 20/18 A3003 RMK A01 T01950182  RH  094%=      5-min Rain = 0.17
KONS 251940Z 28026G43KT 17/15 A3005 RMK A01 T01690150  RH  091%=      5-min Rain = 0.38
KONS 251945Z 06010G27KT 15/14 A3003 RMK A01 T01540140  RH  093%=      5-min Rain = 0.46
KONS 251950Z 04019G46KT 15/13 A2995 RMK A01 T01460133  RH  094%=      5-min Rain = 0.04
KONS 251955Z 08008G15KT 15/13 A2997 RMK A01 T01450132  RH  094%=      5-min Rain = 0
KONS 252000Z 06010G15KT 14/13 A2997 RMK A01 T01440132  RH  094%=      5-min Rain = 0.04
KONS 252005Z 10005G11KT 15/13 A2997 RMK A01 T01450134  RH  095%=      5-min Rain = 0.14
KONS 252010Z 35001KT 15/14 A2996 RMK A01 T01480137  RH  095%=      5-min Rain = 0.02
KONS 252015Z 18005KT 17/16 A2997 RMK A01 T01660157  RH  096%=      5-min Rain = 0
KONS 252020Z 18006KT 17/16 A2997 RMK A01 T01730164  RH  096%=      5-min Rain = 0
KONS 252025Z 18003KT 17/16 A2997 RMK A01 T01700159  RH  095%=      5-min Rain = 0
KONS 252030Z 19002KT 17/16 A2997 RMK A01 T01720161  RH  095%=      5-min Rain = 0
KONS 252035Z 20001KT 17/16 A2997 RMK A01 T01710159  RH  095%=      5-min Rain = 0
KONS 252040Z 14003KT 17/16 A2997 RMK A01 T01700159  RH  095%=      5-min Rain = 0
KONS 252045Z 12003KT 17/16 A2997 RMK A01 T01710159  RH  095%=      5-min Rain = 0.01
KONS 252050Z 12005KT 17/16 A2997 RMK A01 T01720160  RH  095%=      5-min Rain = 0
KONS 252055Z 09003KT 17/16 A2996 RMK A01 T01720160  RH  095%=      5-min Rain = 0
KONS 252100Z 07003KT 17/16 A2996 RMK A01 T01710159  RH  095%=      5-min Rain = 0.01
KONS 252105Z 07006KT 17/16 A2996 RMK A01 T01700158  RH  095%=      5-min Rain = 0.08
KONS 252110Z 05003KT 17/16 A2996 RMK A01 T01680156  RH  095%=      5-min Rain = 0.01
KONS 252115Z 05005KT 17/16 A2995 RMK A01 T01680156  RH  095%=      5-min Rain = 0
KONS 252120Z 05008KT 17/16 A2993 RMK A01 T01670155  RH  095%=      5-min Rain = 0
KONS 252125Z 05007KT 17/16 A2993 RMK A01 T01660155  RH  095%=      5-min Rain = 0
KONS 252130Z 06008KT 17/16 A2992 RMK A01 T01680158  RH  096%=      5-min Rain = 0.01
KONS 252135Z 08007KT 18/17 A2994 RMK A01 T01750165  RH  096%=      5-min Rain = 0.2
KONS 252140Z 34014G19KT 18/17 A2993 RMK A01 T01830173  RH  096%=      5-min Rain = 0.12
KONS 252145Z 32020G29KT 18/16 A2995 RMK A01 T01750164  RH  096%=      5-min Rain = 0.14
KONS 252150Z 31025G38KT 1045/M9999 A2997 RMK A01 T010449199990  RH  -9999%=      5-min Rain = 0.28
KONS 252155Z 02013G28KT 1030/30 A299 RMK A01 T0102960301  RH  -9999%=      5-min Rain = 0.08
KONS 252200Z 04011G19KT 16/15 A299 RMK A01 T01550150  RH  099%=      5-min Rain = 0
KONS 252205Z 35009G15KT 1050/M9999 A299 RMK A01 T010499199990  RH  -9999%=      5-min Rain = 0
KONS 252210Z 36009G15KT 1031/M9999 A2991 RMK A01 T010311199990  RH  -9999%=      5-min Rain = 0
KONS 252215Z 36007KT M8999/M9999 A2993 RMK A01 T189990199990  RH  -9999%=      5-min Rain = 0.02
KONS 252220Z 33007KT M9999/M9999 A2993 RMK A01 T199990199990  RH  -9999%=      5-min Rain = 0.02
KONS 252225Z 28004KT M9999/M9999 A2994 RMK A01 T199990199990  RH  -9999%=      5-min Rain = 0.05
KONS 252230Z 22005KT M9999/M9999 A2993 RMK A01 T199990199990  RH  -9999%=      5-min Rain = 0.03
KONS 252235Z 18006KT M8999/M9999 A2991 RMK A01 T189990199990  RH  -9999%=      5-min Rain = 0.02
KONS 252240Z 14007KT M8999/M9999 A2991 RMK A01 T189990199990  RH  -9999%=      5-min Rain = 0.04
KONS 252245Z 12004KT M8999/M9999 A2992 RMK A01 T189990199990  RH  -9999%=      5-min Rain = 0
KONS 252250Z 00004KT M8999/M9999 A2993 RMK A01 T189990199990  RH  -9999%=      5-min Rain = 0
KONS 252255Z 04004KT M8999/M9999 A2993 RMK A01 T189990199990  RH  -9999%=      5-min Rain = 0.03
KONS 252300Z 14012G29KT M9999/M9999 A2995 RMK A01 T199990199990  RH  -9999%=      5-min Rain = 0.09
KONS 252305Z 15026G35KT M9999/M9999 A2997 RMK A01 T199990199990  RH  -9999%=      5-min Rain = 0.07
KONS 252310Z 18026G35KT M8999/M9999 A3002 RMK A01 T189990199990  RH  -9999%=      5-min Rain = 0.13
KONS 252315Z 17021G26KT M8999/M9999 A3002 RMK A01 T189990199990  RH  -9999%=      5-min Rain = 0.12
KONS 252320Z 14016G25KT M8999/M9999 A30 RMK A01 T189990199990  RH  -9999%=      5-min Rain = 0.03
KONS 252325Z 12017G26KT M8999/M9999 A2996 RMK A01 T189990199990  RH  -9999%=      5-min Rain = 0.01
KONS 252330Z 12018G29KT M8999/M13 A2994 RMK A01 T1899901134  RH  -9999%=      5-min Rain = 0
KONS 252335Z 13010KT M9999/M9999 A2993 RMK A01 T199990199990  RH  -9999%=      5-min Rain = 0
KONS 252340Z 15010KT M9999/M9999 A2992 RMK A01 T199990199990  RH  -9999%=      5-min Rain = 0
KONS 252345Z 16010KT M9999/M9999 A2992 RMK A01 T199990199990  RH  -9999%=      5-min Rain = 0
KONS 252350Z 16009KT M9999/M9999 A2992 RMK A01 T199990199990  RH  -9999%=      5-min Rain = 0
KONS 252355Z 16010KT M9999/M9999 A2992 RMK A01 T199990199990  RH  -9999%=      5-min Rain = 0
KONS 260000Z 16010KT M9999/M9999 A2992 RMK A01 T199990199990  RH  -9999%=      5-min Rain = 0
KONS 260005Z 16010KT M9999/M9999 A2992 RMK A01 T199990199990  RH  -9999%=      5-min Rain = 0
KONS 260010Z 15011KT M8999/M9999 A2992 RMK A01 T189990199990  RH  -9999%=      5-min Rain = 0
KONS 260015Z 14010KT M8999/M9999 A2992 RMK A01 T189990199990  RH  -9999%=      5-min Rain = 0
KONS 260020Z 14010KT M8999/M9999 A2992 RMK A01 T189990199990  RH  -9999%=      5-min Rain = 0
KONS 260025Z 14010KT M9999/M9999 A2992 RMK A01 T199990199990  RH  -9999%=      5-min Rain = 0
KONS 260030Z 14013KT M9999/M9999 A2991 RMK A01 T199990199990  RH  -9999%=      5-min Rain = 0
KONS 260035Z 14012KT M8999/M9999 A2992 RMK A01 T189990199990  RH  -9999%=      5-min Rain = 0
KONS 260040Z 13011KT M9999/M9999 A2992 RMK A01 T199990199990  RH  -9999%=      5-min Rain = 0
KONS 260045Z 13011KT M8999/M9999 A2992 RMK A01 T189990199990  RH  -9999%=      5-min Rain = 0
KONS 260050Z 13011KT M9999/M9999 A2992 RMK A01 T199990199990  RH  -9999%=      5-min Rain = 0
KONS 260055Z 12010KT M9999/M9999 A2993 RMK A01 T199990199990  RH  -9999%=      5-min Rain = 0

Page generated in 0.0084 seconds.